Time;durP1;ratioP1;P1;durP2;ratioP2;P2;SDS_P1;SDS_P2;PMS_P1;PMS_P2;Temp;Humidity;BMP_temperature;BMP_pressure;BME280_temperature;BME280_humidity;BME280_pressure;Samples;Min_cycle;Max_cycle;Signal;HPM_P1;HPM_P2
2023/06/19 00:01:29;;;;;;;16.35;14.65;;;17.20;99.90;;;;;;5039153;28;20913;-72
2023/06/19 00:04:20;;;;;;;17.55;14.27;;;17.10;99.90;;;;;;5058346;28;20371;-72
2023/06/19 00:07:09;;;;;;;16.70;14.80;;;17.10;99.90;;;;;;5038927;28;20224;-72
2023/06/19 00:09:57;;;;;;;16.05;14.30;;;17.10;99.90;;;;;;5040855;28;20218;-74
2023/06/19 00:12:48;;;;;;;17.13;15.40;;;17.00;99.90;;;;;;5043087;28;20229;-73
2023/06/19 00:15:37;;;;;;;15.88;14.13;;;17.10;99.90;;;;;;5040420;28;20216;-73
2023/06/19 00:18:26;;;;;;;16.98;14.00;;;17.00;99.90;;;;;;5063208;28;20260;-72
2023/06/19 00:21:15;;;;;;;16.50;14.80;;;17.00;99.90;;;;;;5027730;28;20326;-71
2023/06/19 00:24:05;;;;;;;16.88;14.95;;;17.00;99.90;;;;;;5032393;28;20225;-72
2023/06/19 00:26:54;;;;;;;17.02;14.68;;;16.90;99.90;;;;;;5040534;28;20216;-73
2023/06/19 00:29:44;;;;;;;16.85;14.48;;;16.80;99.90;;;;;;5040354;28;20310;-71
2023/06/19 00:32:40;;;;;;;16.15;14.43;;;16.90;99.90;;;;;;5051164;28;20229;-72
2023/06/19 00:35:30;;;;;;;16.88;14.60;;;16.80;99.90;;;;;;5044672;28;20236;-71
2023/06/19 00:38:19;;;;;;;15.82;13.70;;;16.80;99.90;;;;;;5034278;28;20719;-72
2023/06/19 00:41:09;;;;;;;15.52;13.70;;;16.80;99.90;;;;;;5042246;28;20263;-72
2023/06/19 00:43:58;;;;;;;15.00;13.48;;;16.80;99.90;;;;;;5053006;28;20307;-72
2023/06/19 00:46:55;;;;;;;15.88;13.88;;;16.80;99.90;;;;;;5053005;28;20220;-72
2023/06/19 00:49:50;;;;;;;17.13;14.48;;;16.80;99.90;;;;;;5033751;28;20221;-72
2023/06/19 00:52:40;;;;;;;14.85;13.23;;;16.80;99.90;;;;;;5036820;28;20445;-73
2023/06/19 00:55:31;;;;;;;14.75;13.20;;;16.80;99.90;;;;;;5038264;28;21053;-71
2023/06/19 00:58:21;;;;;;;14.40;12.90;;;16.60;99.90;;;;;;5035058;28;20243;-73
2023/06/19 01:01:10;;;;;;;15.23;13.52;;;16.60;99.90;;;;;;5035945;28;20571;-71
2023/06/19 01:04:06;;;;;;;14.45;12.95;;;16.60;99.90;;;;;;5038432;28;20583;-71
2023/06/19 01:07:01;;;;;;;16.27;13.23;;;16.60;99.90;;;;;;5016318;28;20577;-72
2023/06/19 01:09:57;;;;;;;16.67;12.60;;;16.70;99.90;;;;;;5049914;28;20355;-73
2023/06/19 01:12:53;;;;;;;14.98;12.73;;;16.70;99.90;;;;;;5033812;28;20225;-71
2023/06/19 01:15:48;;;;;;;15.32;12.05;;;16.70;99.90;;;;;;5043299;28;20232;-71
2023/06/19 01:18:38;;;;;;;13.45;12.05;;;16.60;99.90;;;;;;5025810;28;20272;-71
2023/06/19 01:21:29;;;;;;;14.52;12.55;;;16.50;99.90;;;;;;5034041;28;20216;-72
2023/06/19 01:24:19;;;;;;;15.38;11.88;;;16.50;99.90;;;;;;5053986;28;20247;-72
2023/06/19 01:27:13;;;;;;;12.98;11.63;;;16.50;99.90;;;;;;5053619;28;20228;-72
2023/06/19 01:30:04;;;;;;;15.75;12.25;;;16.50;99.90;;;;;;5056583;28;20652;-71
2023/06/19 01:32:57;;;;;;;15.32;12.65;;;16.50;99.90;;;;;;5030859;28;20318;-71
2023/06/19 01:35:48;;;;;;;13.90;12.02;;;16.60;99.90;;;;;;5071852;28;20258;-71
2023/06/19 01:38:39;;;;;;;13.45;12.05;;;16.50;99.90;;;;;;5066976;28;21057;-72
2023/06/19 01:41:30;;;;;;;12.75;11.45;;;16.40;99.90;;;;;;5044185;28;20277;-73
2023/06/19 01:44:19;;;;;;;13.05;11.65;;;16.40;99.90;;;;;;5053655;28;20225;-73
2023/06/19 01:47:10;;;;;;;12.48;11.20;;;16.40;99.90;;;;;;5061700;28;20238;-72
2023/06/19 01:49:59;;;;;;;12.70;11.13;;;16.40;99.90;;;;;;5052631;28;20995;-72
2023/06/19 01:52:50;;;;;;;12.48;11.20;;;16.40;99.90;;;;;;5058282;28;20224;-71
2023/06/19 01:55:39;;;;;;;14.60;11.80;;;16.40;99.90;;;;;;5043582;28;20639;-71
2023/06/19 01:58:32;;;;;;;14.18;11.73;;;16.40;99.90;;;;;;5056629;28;20227;-71
2023/06/19 02:01:22;;;;;;;12.95;11.63;;;16.40;99.90;;;;;;5051451;28;20310;-72
2023/06/19 02:04:11;;;;;;;13.25;11.80;;;16.50;99.90;;;;;;5057419;28;20231;-72
2023/06/19 02:07:00;;;;;;;15.13;12.07;;;16.50;99.90;;;;;;5044609;28;20274;-72
2023/06/19 02:09:50;;;;;;;14.18;11.98;;;16.50;99.90;;;;;;5060463;28;20227;-72
2023/06/19 02:12:39;;;;;;;14.50;12.93;;;16.40;99.90;;;;;;5061500;28;20216;-72
2023/06/19 02:15:29;;;;;;;13.55;12.23;;;16.50;99.90;;;;;;5041847;28;20223;-72
2023/06/19 02:18:18;;;;;;;12.85;11.65;;;16.50;99.90;;;;;;5052980;28;20691;-72
2023/06/19 02:21:08;;;;;;;14.63;11.90;;;16.40;99.90;;;;;;5052281;28;20221;-72
2023/06/19 02:23:59;;;;;;;13.88;12.32;;;16.30;99.90;;;;;;5049045;28;20683;-72
2023/06/19 02:26:49;;;;;;;13.80;12.43;;;16.40;99.90;;;;;;5052747;28;20224;-73
2023/06/19 02:29:38;;;;;;;16.75;12.13;;;16.40;99.90;;;;;;5049759;28;20216;-74
2023/06/19 02:32:28;;;;;;;14.05;12.68;;;16.40;99.90;;;;;;5039831;28;20237;-74
2023/06/19 02:35:17;;;;;;;12.82;11.52;;;16.40;99.90;;;;;;5057786;28;20224;-73
2023/06/19 02:38:06;;;;;;;13.75;12.45;;;16.40;99.90;;;;;;5055083;28;20315;-74
2023/06/19 02:40:57;;;;;;;14.10;12.43;;;16.30;99.90;;;;;;5053361;28;20513;-72
2023/06/19 02:43:47;;;;;;;13.70;12.23;;;16.30;99.90;;;;;;5053917;28;20221;-73
2023/06/19 02:46:36;;;;;;;15.18;12.52;;;16.40;99.90;;;;;;5056835;28;20231;-73
2023/06/19 02:49:27;;;;;;;14.07;11.95;;;16.40;99.90;;;;;;5039573;28;20224;-72
2023/06/19 02:52:16;;;;;;;13.52;11.93;;;16.30;99.90;;;;;;5051559;28;20620;-73
2023/06/19 02:55:08;;;;;;;13.65;12.23;;;16.30;99.90;;;;;;5056354;28;20220;-73
2023/06/19 02:57:57;;;;;;;13.32;11.95;;;16.20;99.90;;;;;;5048565;28;20583;-73
2023/06/19 03:00:47;;;;;;;13.63;11.60;;;16.30;99.90;;;;;;5054875;28;20220;-74
2023/06/19 03:03:38;;;;;;;13.35;11.70;;;16.30;99.90;;;;;;5058948;28;20227;-72
2023/06/19 03:06:28;;;;;;;13.70;11.50;;;16.30;99.90;;;;;;5044997;28;20235;-73
2023/06/19 03:09:19;;;;;;;15.38;12.40;;;16.30;99.90;;;;;;5037107;28;20247;-72
2023/06/19 03:12:09;;;;;;;13.48;11.30;;;16.40;99.90;;;;;;5040179;28;20254;-72
2023/06/19 03:14:59;;;;;;;14.38;11.85;;;16.30;99.90;;;;;;5035452;28;20240;-72
2023/06/19 03:17:51;;;;;;;13.75;12.20;;;16.40;99.90;;;;;;5046449;28;20216;-72
2023/06/19 03:20:41;;;;;;;12.90;11.60;;;16.40;99.90;;;;;;5037450;28;20269;-71
2023/06/19 03:23:32;;;;;;;12.68;11.38;;;16.50;99.90;;;;;;5019217;28;20222;-71
2023/06/19 03:26:24;;;;;;;14.85;12.38;;;16.70;99.90;;;;;;5055733;28;20306;-72
2023/06/19 03:29:14;;;;;;;13.35;12.00;;;16.60;99.90;;;;;;5045708;28;20225;-71
2023/06/19 03:32:29;;;;;;;12.80;11.48;;;16.70;99.90;;;;;;5029651;28;20654;-71
2023/06/19 03:35:21;;;;;;;12.95;11.65;;;16.70;99.90;;;;;;5009219;28;20228;-71
2023/06/19 03:38:09;;;;;;;12.43;11.25;;;16.80;99.90;;;;;;5031913;28;20228;-71
2023/06/19 03:41:00;;;;;;;13.30;12.00;;;16.90;99.90;;;;;;5024191;28;20345;-72
2023/06/19 03:43:50;;;;;;;13.02;11.70;;;16.90;99.90;;;;;;5024138;28;20916;-72
2023/06/19 03:46:39;;;;;;;15.10;12.20;;;17.00;99.90;;;;;;5059414;28;20217;-70
2023/06/19 03:49:28;;;;;;;13.65;11.90;;;17.00;99.90;;;;;;5052721;28;20220;-68
2023/06/19 03:52:17;;;;;;;13.73;12.38;;;17.20;99.90;;;;;;5040725;28;20742;-70
2023/06/19 03:55:07;;;;;;;13.52;12.07;;;17.20;99.90;;;;;;5032518;28;20228;-70
2023/06/19 03:57:57;;;;;;;14.38;12.88;;;17.30;99.90;;;;;;5026190;28;20247;-69
2023/06/19 04:00:46;;;;;;;14.93;12.75;;;17.40;99.90;;;;;;5045148;28;20773;-70
2023/06/19 04:03:36;;;;;;;14.23;12.73;;;17.30;99.90;;;;;;5049055;28;20497;-70
2023/06/19 04:06:28;;;;;;;13.90;12.40;;;17.30;99.90;;;;;;5020070;28;20236;-70
2023/06/19 04:09:17;;;;;;;14.10;12.43;;;17.40;99.90;;;;;;5031931;28;20292;-70
2023/06/19 04:12:07;;;;;;;13.73;11.88;;;17.50;99.90;;;;;;5039672;28;20224;-71
2023/06/19 04:14:57;;;;;;;15.25;13.65;;;17.50;99.90;;;;;;5041435;28;20716;-70
2023/06/19 04:17:47;;;;;;;14.52;13.05;;;17.40;99.90;;;;;;5025982;28;20761;-71
2023/06/19 04:20:36;;;;;;;14.50;13.15;;;17.30;99.90;;;;;;5021134;28;20734;-69
2023/06/19 04:23:26;;;;;;;15.23;13.73;;;17.30;99.90;;;;;;5021352;28;20308;-70
2023/06/19 04:26:15;;;;;;;14.98;13.43;;;17.30;99.90;;;;;;5044731;28;20303;-70
2023/06/19 04:29:05;;;;;;;15.52;13.93;;;17.40;99.90;;;;;;5041834;28;20417;-69
2023/06/19 04:31:55;;;;;;;16.85;15.15;;;17.50;99.90;;;;;;5027649;28;20656;-69
2023/06/19 04:34:45;;;;;;;16.13;14.52;;;17.80;99.90;;;;;;5050354;28;20778;-69
2023/06/19 04:37:34;;;;;;;16.38;14.20;;;18.00;99.90;;;;;;5064870;28;20687;-70
2023/06/19 04:40:25;;;;;;;14.85;13.38;;;18.10;99.90;;;;;;5036118;28;20306;-70
2023/06/19 04:43:14;;;;;;;13.90;12.50;;;18.30;99.90;;;;;;5031041;28;20251;-70
2023/06/19 04:46:04;;;;;;;14.82;12.45;;;18.30;99.90;;;;;;5033962;28;20836;-71
2023/06/19 04:48:55;;;;;;;14.10;12.73;;;18.40;99.90;;;;;;5030306;28;20280;-69
2023/06/19 04:51:44;;;;;;;15.70;13.02;;;18.60;99.90;;;;;;5037532;28;20224;-70
2023/06/19 04:54:33;;;;;;;14.23;12.40;;;18.70;99.90;;;;;;5040453;28;20228;-70
2023/06/19 04:57:22;;;;;;;14.40;12.90;;;18.60;99.90;;;;;;5030669;28;20953;-70
2023/06/19 05:00:12;;;;;;;17.45;13.65;;;18.70;99.90;;;;;;5031304;28;20591;-69
2023/06/19 05:03:02;;;;;;;14.68;13.18;;;18.80;99.90;;;;;;5037621;28;20634;-69
2023/06/19 05:05:52;;;;;;;15.23;13.63;;;18.80;99.90;;;;;;5038077;28;20239;-70
2023/06/19 05:08:41;;;;;;;15.45;13.25;;;18.90;99.90;;;;;;5041989;28;20221;-70
2023/06/19 05:11:30;;;;;;;14.57;13.07;;;19.00;99.90;;;;;;5035358;28;20221;-70
2023/06/19 05:14:19;;;;;;;15.15;13.52;;;19.20;99.90;;;;;;5036495;28;20343;-70
2023/06/19 05:17:09;;;;;;;15.00;13.27;;;19.40;99.90;;;;;;5027203;28;20229;-71
2023/06/19 05:19:58;;;;;;;13.93;12.32;;;19.50;99.90;;;;;;5028737;28;20731;-72
2023/06/19 05:22:49;;;;;;;13.57;12.18;;;19.60;99.90;;;;;;5034394;28;20232;-73
2023/06/19 05:25:38;;;;;;;13.80;12.20;;;19.70;99.90;;;;;;5033340;28;21000;-73
2023/06/19 05:28:27;;;;;;;16.05;11.98;;;19.90;99.90;;;;;;5001940;28;20418;-70
2023/06/19 05:31:17;;;;;;;12.65;11.43;;;19.90;99.90;;;;;;5037084;28;20759;-71
2023/06/19 05:34:06;;;;;;;11.40;10.20;;;19.80;99.90;;;;;;5026982;28;20224;-72
2023/06/19 05:36:54;;;;;;;11.07;9.98;;;19.90;99.90;;;;;;5039156;28;20328;-71
2023/06/19 05:39:50;;;;;;;11.05;9.88;;;19.90;99.90;;;;;;5035608;28;20231;-78
2023/06/19 05:42:42;;;;;;;14.38;11.77;;;20.20;99.90;;;;;;5050121;28;20681;-87
2023/06/19 05:45:34;;;;;;;12.43;11.13;;;20.30;99.90;;;;;;5050151;28;20221;-74
2023/06/19 05:48:24;;;;;;;11.57;10.38;;;20.40;99.90;;;;;;5037996;28;20221;-74
2023/06/19 05:51:13;;;;;;;12.38;10.20;;;20.40;99.90;;;;;;5033055;28;20607;-75
2023/06/19 05:54:03;;;;;;;9.90;8.95;;;20.50;99.90;;;;;;5036583;28;20236;-74
2023/06/19 05:56:53;;;;;;;9.48;8.27;;;20.60;99.90;;;;;;5038030;28;20597;-75
2023/06/19 05:59:42;;;;;;;8.57;7.75;;;20.50;99.90;;;;;;5041068;28;20220;-74
2023/06/19 06:02:31;;;;;;;10.02;7.93;;;20.60;99.90;;;;;;5035468;28;20225;-75
2023/06/19 06:05:21;;;;;;;8.68;7.88;;;20.70;99.90;;;;;;5047777;28;20744;-75
2023/06/19 06:08:10;;;;;;;9.57;8.60;;;20.70;99.90;;;;;;5049980;28;20235;-76
2023/06/19 06:10:59;;;;;;;9.45;8.43;;;20.80;99.90;;;;;;5070338;28;20228;-75
2023/06/19 06:13:50;;;;;;;9.40;8.50;;;21.00;99.90;;;;;;5060989;28;20216;-75
2023/06/19 06:16:39;;;;;;;9.65;8.50;;;21.10;99.90;;;;;;5072830;28;20350;-75
2023/06/19 06:19:28;;;;;;;11.90;8.05;;;21.90;99.90;;;;;;5067274;28;20221;-75
2023/06/19 06:22:23;;;;;;;8.60;7.72;;;22.10;99.90;;;;;;5037488;28;21384;-75
2023/06/19 06:25:12;;;;;;;10.80;8.10;;;21.70;99.90;;;;;;5039433;28;20236;-75
2023/06/19 06:28:02;;;;;;;9.18;8.25;;;21.60;99.90;;;;;;5023538;28;20732;-76
2023/06/19 06:30:52;;;;;;;10.07;8.57;;;21.50;99.90;;;;;;5032115;28;20355;-74
2023/06/19 06:33:42;;;;;;;9.10;8.02;;;21.60;99.90;;;;;;5036821;28;20755;-75
2023/06/19 06:36:30;;;;;;;8.65;7.05;;;21.60;99.90;;;;;;5036780;28;20217;-75
2023/06/19 06:39:22;;;;;;;6.93;6.18;;;21.90;99.90;;;;;;5037593;28;20225;-74
2023/06/19 06:42:11;;;;;;;6.60;6.00;;;22.40;99.90;;;;;;5019732;28;20229;-75
2023/06/19 06:45:00;;;;;;;6.90;6.30;;;22.90;99.90;;;;;;5023144;28;20225;-74
2023/06/19 06:47:51;;;;;;;8.07;6.72;;;23.30;99.90;;;;;;5038071;28;20367;-77
2023/06/19 06:50:41;;;;;;;6.78;6.18;;;23.20;99.90;;;;;;5024344;28;20224;-72
2023/06/19 06:53:31;;;;;;;8.15;6.53;;;23.40;99.90;;;;;;5036118;28;20316;-74
2023/06/19 06:56:20;;;;;;;7.72;7.03;;;23.50;99.90;;;;;;5037419;28;20247;-73
2023/06/19 06:59:09;;;;;;;8.75;6.75;;;23.20;99.90;;;;;;5032715;28;20706;-72
2023/06/19 07:01:58;;;;;;;8.30;7.50;;;23.10;99.90;;;;;;5027195;28;20229;-73
2023/06/19 07:04:49;;;;;;;7.70;6.95;;;23.10;99.90;;;;;;5026907;28;20221;-73
2023/06/19 07:07:38;;;;;;;8.05;7.35;;;23.30;99.90;;;;;;5035164;28;20272;-76
2023/06/19 07:10:27;;;;;;;7.72;6.80;;;23.30;99.90;;;;;;5027627;28;21025;-77
2023/06/19 07:13:17;;;;;;;8.15;7.35;;;24.00;99.90;;;;;;5032299;28;20229;-77
2023/06/19 07:16:06;;;;;;;7.53;6.82;;;25.20;99.90;;;;;;5033363;28;20232;-76
2023/06/19 07:18:55;;;;;;;9.82;7.75;;;24.70;99.90;;;;;;5028306;28;20225;-76
2023/06/19 07:21:45;;;;;;;8.35;7.47;;;24.50;99.90;;;;;;5030520;28;20316;-73
2023/06/19 07:24:34;;;;;;;8.77;7.78;;;24.50;99.90;;;;;;5027479;28;20228;-73
2023/06/19 07:27:27;;;;;;;7.85;7.15;;;24.70;99.90;;;;;;5020407;28;20668;-73
2023/06/19 07:30:16;;;;;;;8.27;7.57;;;24.80;99.90;;;;;;5036408;28;20221;-74
2023/06/19 07:33:07;;;;;;;8.65;7.72;;;25.20;99.90;;;;;;5037030;28;20591;-73
2023/06/19 07:35:59;;;;;;;8.07;7.38;;;25.50;99.90;;;;;;5055966;28;20833;-74
2023/06/19 07:38:50;;;;;;;9.85;7.50;;;25.90;99.90;;;;;;5056825;28;20228;-74
2023/06/19 07:41:39;;;;;;;8.30;7.50;;;26.30;99.90;;;;;;5057652;28;20227;-73
2023/06/19 07:44:28;;;;;;;10.10;7.47;;;26.30;99.90;;;;;;5037651;28;20645;-73
2023/06/19 07:47:17;;;;;;;8.10;7.40;;;26.20;99.90;;;;;;5059755;28;20230;-72
2023/06/19 07:50:10;;;;;;;8.77;7.15;;;26.60;99.90;;;;;;5050534;28;20703;-73
2023/06/19 07:52:58;;;;;;;8.55;7.65;;;26.80;99.90;;;;;;5047135;28;20229;-73
2023/06/19 07:55:49;;;;;;;8.88;7.97;;;27.20;99.90;;;;;;5053416;28;20219;-71
2023/06/19 07:58:38;;;;;;;15.85;8.38;;;27.20;99.90;;;;;;5040709;28;20622;-72
2023/06/19 08:01:27;;;;;;;8.57;7.88;;;27.30;99.90;;;;;;5048112;28;20274;-72
2023/06/19 08:04:17;;;;;;;9.50;7.82;;;27.30;99.90;;;;;;5050315;28;20229;-71
2023/06/19 08:07:06;;;;;;;8.85;8.10;;;27.60;99.90;;;;;;5047827;28;20313;-72
2023/06/19 08:09:55;;;;;;;8.27;7.57;;;27.50;99.90;;;;;;5054233;28;20309;-72
2023/06/19 08:13:02;;;;;;;8.38;7.63;;;27.90;99.90;;;;;;5048504;28;20247;-73
2023/06/19 08:15:50;;;;;;;8.38;7.60;;;28.30;99.90;;;;;;5057078;28;20223;-72
2023/06/19 08:18:39;;;;;;;9.57;7.82;;;28.40;99.90;;;;;;5055245;28;20223;-73
2023/06/19 08:21:28;;;;;;;9.02;6.85;;;28.60;99.90;;;;;;5053521;28;20250;-72
2023/06/19 08:24:17;;;;;;;9.02;8.13;;;28.80;99.90;;;;;;5058365;28;20223;-73
2023/06/19 08:27:07;;;;;;;7.88;7.18;;;29.20;99.90;;;;;;5018053;28;20236;-73
2023/06/19 08:29:57;;;;;;;10.93;7.63;;;29.40;99.80;;;;;;5041950;28;20730;-73
2023/06/19 08:32:48;;;;;;;7.70;7.07;;;28.90;99.90;;;;;;5055691;28;20706;-73
2023/06/19 08:35:41;;;;;;;8.35;7.32;;;29.00;98.70;;;;;;5033798;28;20236;-73
2023/06/19 08:38:30;;;;;;;8.05;7.32;;;29.30;99.90;;;;;;5027248;28;20932;-73
2023/06/19 08:41:19;;;;;;;8.07;7.38;;;29.60;99.90;;;;;;5032429;28;20252;-73
2023/06/19 08:44:09;;;;;;;8.10;7.50;;;29.90;97.20;;;;;;5027047;28;20286;-73
2023/06/19 08:47:00;;;;;;;7.60;6.57;;;29.90;99.90;;;;;;5049830;28;20251;-73
2023/06/19 08:49:50;;;;;;;8.00;7.22;;;30.10;99.80;;;;;;5027887;28;20604;-73
2023/06/19 08:52:38;;;;;;;6.65;6.05;;;30.30;99.80;;;;;;5042508;28;20746;-73
2023/06/19 08:55:29;;;;;;;6.70;6.10;;;30.30;94.70;;;;;;5028423;28;20217;-72
2023/06/19 08:58:23;;;;;;;7.38;6.78;;;30.40;97.10;;;;;;5033361;28;20301;-71
2023/06/19 09:01:14;;;;;;;7.20;6.50;;;30.50;96.40;;;;;;5049220;28;20255;-71
2023/06/19 09:04:11;;;;;;;6.85;6.25;;;30.70;97.60;;;;;;5026822;28;20209;-71
2023/06/19 09:07:03;;;;;;;6.88;6.00;;;30.80;93.90;;;;;;5024877;28;20244;-72
2023/06/19 09:10:14;;;;;;;7.53;6.82;;;30.50;92.80;;;;;;5044908;28;20809;-72
2023/06/19 09:13:04;;;;;;;7.97;6.53;;;30.90;95.20;;;;;;5030839;28;20225;-73
2023/06/19 09:16:00;;;;;;;7.63;6.43;;;30.90;94.90;;;;;;5029446;28;20646;-72
2023/06/19 09:18:52;;;;;;;6.63;6.03;;;31.30;94.90;;;;;;5035198;28;20812;-72
2023/06/19 09:21:45;;;;;;;6.70;6.20;;;31.50;94.30;;;;;;5047395;28;20228;-72
2023/06/19 09:24:37;;;;;;;7.00;6.40;;;31.60;93.60;;;;;;5032868;28;20231;-73
2023/06/19 09:27:32;;;;;;;7.10;6.40;;;31.50;94.30;;;;;;5027775;28;20303;-73
2023/06/19 09:30:21;;;;;;;6.88;6.18;;;31.20;90.00;;;;;;5046493;28;20236;-73
2023/06/19 09:33:11;;;;;;;7.43;6.32;;;31.20;94.20;;;;;;5046972;28;20220;-74
2023/06/19 09:36:02;;;;;;;7.25;6.55;;;31.80;91.70;;;;;;5051277;28;20748;-73
2023/06/19 09:38:55;;;;;;;6.85;6.25;;;31.50;87.30;;;;;;5046650;28;20228;-73
2023/06/19 09:41:47;;;;;;;7.45;6.13;;;31.50;88.60;;;;;;5053185;28;20231;-74
2023/06/19 09:44:41;;;;;;;8.63;5.82;;;32.10;92.90;;;;;;5038005;28;20222;-73
2023/06/19 09:47:37;;;;;;;9.00;5.40;;;33.00;87.90;;;;;;5046892;28;20315;-73
2023/06/19 09:50:31;;;;;;;6.88;5.38;;;33.30;82.50;;;;;;5035956;28;20294;-73
2023/06/19 09:53:20;;;;;;;6.22;5.63;;;33.90;92.00;;;;;;5037636;28;20223;-73
2023/06/19 09:56:13;;;;;;;7.30;5.90;;;35.20;92.50;;;;;;5054680;28;20227;-73
2023/06/19 09:59:09;;;;;;;8.43;5.60;;;35.50;84.40;;;;;;5037964;28;20332;-73
2023/06/19 10:01:58;;;;;;;6.50;5.65;;;36.20;78.30;;;;;;5035485;28;20223;-73
2023/06/19 10:04:51;;;;;;;6.70;6.00;;;33.90;86.20;;;;;;5030886;28;20228;-73
2023/06/19 10:07:42;;;;;;;8.70;5.50;;;33.70;82.60;;;;;;5051637;28;20705;-73
2023/06/19 10:10:33;;;;;;;7.38;5.35;;;35.60;82.80;;;;;;5057556;28;20231;-74
2023/06/19 10:13:31;;;;;;;8.70;5.65;;;33.20;85.10;;;;;;5016358;28;20865;-73
2023/06/19 10:16:24;;;;;;;7.65;5.60;;;31.60;89.40;;;;;;5050287;28;20817;-73
2023/06/19 10:19:18;;;;;;;6.93;5.35;;;33.80;77.80;;;;;;5049518;28;20598;-73
2023/06/19 10:22:07;;;;;;;5.80;4.80;;;36.10;81.90;;;;;;5052343;28;20221;-73
2023/06/19 10:24:57;;;;;;;6.95;5.22;;;37.60;73.60;;;;;;5054339;28;20216;-73
2023/06/19 10:27:47;;;;;;;5.07;4.63;;;37.80;68.90;;;;;;5053089;28;20747;-73
2023/06/19 10:30:38;;;;;;;6.35;4.70;;;;;;;;;;5054321;28;20361;-72
2023/06/19 10:33:29;;;;;;;5.78;4.68;;;38.70;64.00;;;;;;5051485;28;20294;-74
2023/06/19 10:36:21;;;;;;;5.15;4.63;;;35.70;68.30;;;;;;5032486;28;20221;-74
2023/06/19 10:39:12;;;;;;;4.28;3.97;;;34.60;71.60;;;;;;5027847;28;20229;-73
2023/06/19 10:42:01;;;;;;;12.38;5.90;;;37.40;69.20;;;;;;5032801;28;20287;-72
2023/06/19 10:45:00;;;;;;;5.28;4.30;;;39.20;63.40;;;;;;5034556;28;20228;-73
2023/06/19 10:47:52;;;;;;;4.97;4.43;;;40.50;63.20;;;;;;5027228;28;20212;-73
2023/06/19 10:50:43;;;;;;;4.85;4.43;;;41.60;57.20;;;;;;5016245;28;20244;-72
2023/06/19 10:53:34;;;;;;;4.97;4.53;;;38.30;55.90;;;;;;5015415;28;20221;-73
2023/06/19 10:56:23;;;;;;;5.95;4.55;;;35.00;62.00;;;;;;5024070;28;20224;-72
2023/06/19 10:59:13;;;;;;;4.88;4.40;;;36.80;68.00;;;;;;5037025;28;20992;-72
2023/06/19 11:02:02;;;;;;;4.70;4.30;;;39.20;62.60;;;;;;5032891;28;20232;-73
2023/06/19 11:04:58;;;;;;;5.78;4.18;;;40.60;58.20;;;;;;5030213;28;20279;-72
2023/06/19 11:07:52;;;;;;;5.13;4.13;;;41.70;54.90;;;;;;5035204;28;20295;-73
2023/06/19 11:10:42;;;;;;;4.25;3.60;;;41.50;53.50;;;;;;5025030;28;20711;-72
2023/06/19 11:13:31;;;;;;;5.53;4.25;;;42.30;54.50;;;;;;5034641;28;20220;-73
2023/06/19 11:16:21;;;;;;;10.85;4.43;;;43.10;52.80;;;;;;5034128;28;20220;-72
2023/06/19 11:19:10;;;;;;;6.65;4.20;;;42.80;50.30;;;;;;5033141;28;20645;-73
2023/06/19 11:22:03;;;;;;;9.80;5.00;;;41.80;52.50;;;;;;5027573;28;20726;-72
2023/06/19 11:24:52;;;;;;;4.32;4.03;;;42.10;50.00;;;;;;5017462;28;20236;-73
2023/06/19 11:27:40;;;;;;;4.22;3.88;;;42.80;51.30;;;;;;5034801;28;20232;-72
2023/06/19 11:30:33;;;;;;;5.78;3.63;;;43.70;48.30;;;;;;5030394;28;20216;-72
2023/06/19 11:33:23;;;;;;;4.38;3.58;;;44.40;48.90;;;;;;5028379;28;20311;-72
2023/06/19 11:36:14;;;;;;;4.47;4.07;;;44.60;48.80;;;;;;5031384;28;20278;-73
2023/06/19 11:39:13;;;;;;;4.25;3.40;;;44.50;45.80;;;;;;5027450;28;20235;-73
2023/06/19 11:42:03;;;;;;;4.40;4.07;;;45.50;45.10;;;;;;5011837;28;20224;-73
2023/06/19 11:44:57;;;;;;;5.20;3.42;;;46.40;44.70;;;;;;5015676;28;20495;-73
2023/06/19 11:47:47;;;;;;;5.30;3.95;;;47.40;44.50;;;;;;5016765;28;20224;-73
2023/06/19 11:50:39;;;;;;;5.65;4.10;;;48.30;43.50;;;;;;5031573;28;20224;-73
2023/06/19 11:53:28;;;;;;;3.63;3.33;;;48.60;41.40;;;;;;5030644;28;20700;-72
2023/06/19 11:56:19;;;;;;;4.75;3.40;;;47.40;39.70;;;;;;5029660;28;21039;-72
2023/06/19 11:59:09;;;;;;;4.15;2.92;;;48.50;41.10;;;;;;5029033;28;20232;-72
2023/06/19 12:02:01;;;;;;;5.45;3.80;;;49.20;40.50;;;;;;5033418;28;20800;-74
2023/06/19 12:04:49;;;;;;;3.40;3.10;;;50.70;39.10;;;;;;5029990;28;20217;-72
2023/06/19 12:07:40;;;;;;;3.60;3.30;;;51.20;37.90;;;;;;5038494;28;20235;-73
2023/06/19 12:10:30;;;;;;;3.55;3.25;;;50.30;37.40;;;;;;5040566;28;20254;-72
2023/06/19 12:13:20;;;;;;;3.30;3.10;;;48.90;38.50;;;;;;5033599;28;20232;-72
2023/06/19 12:16:09;;;;;;;3.08;2.70;;;47.40;37.60;;;;;;5023213;28;20307;-73
2023/06/19 12:18:59;;;;;;;3.05;2.60;;;48.00;38.00;;;;;;5028441;28;20279;-73
2023/06/19 12:21:48;;;;;;;5.60;3.15;;;48.80;36.00;;;;;;5028651;28;20385;-74
2023/06/19 12:24:37;;;;;;;6.75;4.60;;;50.20;36.00;;;;;;5030631;28;20410;-73
2023/06/19 12:27:26;;;;;;;3.28;2.90;;;52.20;36.60;;;;;;5029104;28;20227;-73
2023/06/19 12:30:16;;;;;;;3.05;2.70;;;52.60;34.30;;;;;;5028033;28;20844;-72
2023/06/19 12:33:05;;;;;;;3.63;3.10;;;52.20;34.80;;;;;;5039420;28;20244;-72
2023/06/19 12:35:54;;;;;;;4.53;2.65;;;50.80;34.30;;;;;;5037814;28;20234;-72
2023/06/19 12:38:44;;;;;;;3.00;2.80;;;49.30;33.90;;;;;;5052483;28;20286;-73
2023/06/19 12:41:33;;;;;;;3.85;3.10;;;47.70;35.60;;;;;;5055351;28;20981;-73
2023/06/19 12:44:23;;;;;;;9.27;4.85;;;47.30;35.60;;;;;;5054537;28;20230;-72
2023/06/19 12:47:15;;;;;;;3.45;3.15;;;47.60;36.40;;;;;;5021295;28;20224;-72
2023/06/19 12:50:04;;;;;;;4.18;3.33;;;46.50;37.40;;;;;;5030668;28;21012;-74
2023/06/19 12:52:53;;;;;;;3.60;3.30;;;43.10;41.10;;;;;;5026786;28;20230;-73
2023/06/19 12:55:42;;;;;;;18.77;9.32;;;39.80;41.70;;;;;;5033821;28;20330;-72
2023/06/19 12:58:49;;;;;;;21.95;10.73;;;37.50;46.10;;;;;;5055059;28;20643;-72
2023/06/19 13:01:37;;;;;;;6.35;4.03;;;35.90;48.20;;;;;;5043844;28;20312;-72
2023/06/19 13:04:28;;;;;;;4.68;3.85;;;34.60;50.70;;;;;;5052500;28;20231;-72
2023/06/19 13:07:17;;;;;;;5.38;4.53;;;33.80;52.40;;;;;;5047553;28;20224;-71
2023/06/19 13:10:06;;;;;;;4.95;4.35;;;33.00;53.50;;;;;;5063365;28;20223;-72
2023/06/19 13:12:58;;;;;;;7.38;4.95;;;32.10;55.30;;;;;;5049967;28;20647;-71
2023/06/19 13:15:49;;;;;;;5.63;4.88;;;31.50;59.50;;;;;;5059122;28;20224;-72
2023/06/19 13:18:38;;;;;;;5.97;4.90;;;31.40;58.20;;;;;;5048237;28;20213;-71
2023/06/19 13:21:28;;;;;;;4.38;4.00;;;30.60;56.70;;;;;;5038129;28;20224;-71
2023/06/19 13:24:17;;;;;;;5.32;4.50;;;30.70;57.40;;;;;;5060518;28;20211;-71
2023/06/19 13:27:06;;;;;;;4.63;4.30;;;30.50;57.80;;;;;;5044246;28;20212;-71
2023/06/19 13:29:56;;;;;;;4.80;4.30;;;30.50;60.10;;;;;;5044594;28;20228;-71
2023/06/19 13:32:47;;;;;;;5.30;4.90;;;30.60;59.70;;;;;;5053150;28;20216;-71
2023/06/19 13:35:36;;;;;;;8.30;4.82;;;30.50;59.40;;;;;;5063215;28;20220;-71
2023/06/19 13:38:27;;;;;;;5.55;5.03;;;30.10;58.80;;;;;;5061082;28;20219;-71
2023/06/19 13:41:16;;;;;;;5.22;4.72;;;29.80;58.70;;;;;;5049528;28;20222;-73
2023/06/19 13:44:05;;;;;;;5.93;4.90;;;29.40;62.00;;;;;;5049230;28;20243;-72
2023/06/19 13:46:55;;;;;;;5.75;5.20;;;29.30;60.40;;;;;;5035752;28;20235;-72
2023/06/19 13:49:44;;;;;;;6.50;5.65;;;29.30;61.10;;;;;;5046602;28;20322;-72
2023/06/19 13:52:33;;;;;;;5.93;5.40;;;29.30;62.50;;;;;;5056848;28;20694;-72
2023/06/19 13:55:23;;;;;;;7.47;5.82;;;29.20;61.70;;;;;;5057476;28;20606;-72
2023/06/19 13:58:12;;;;;;;7.72;6.25;;;29.20;63.90;;;;;;5045516;28;20225;-72
2023/06/19 14:01:01;;;;;;;7.55;5.85;;;29.00;65.00;;;;;;5060470;28;20356;-72
2023/06/19 14:03:50;;;;;;;7.60;5.78;;;28.90;65.30;;;;;;5046616;28;21211;-72
2023/06/19 14:06:42;;;;;;;7.03;5.38;;;28.60;66.00;;;;;;5032113;28;20227;-71
2023/06/19 14:09:31;;;;;;;6.05;5.38;;;28.70;64.70;;;;;;5041380;28;20595;-73
2023/06/19 14:12:22;;;;;;;6.00;5.50;;;28.70;64.10;;;;;;5051259;28;20244;-72
2023/06/19 14:15:11;;;;;;;6.60;5.18;;;28.60;65.40;;;;;;5053765;28;20255;-72
2023/06/19 14:18:01;;;;;;;6.03;5.53;;;28.70;64.40;;;;;;5058200;28;20226;-71
2023/06/19 14:20:50;;;;;;;6.22;5.43;;;28.70;64.00;;;;;;5054440;28;20235;-72
2023/06/19 14:23:43;;;;;;;6.55;5.00;;;28.50;64.40;;;;;;5054225;28;20890;-72
2023/06/19 14:26:32;;;;;;;6.13;5.07;;;28.30;64.30;;;;;;5050445;28;20373;-72
2023/06/19 14:29:22;;;;;;;7.88;5.57;;;28.20;64.30;;;;;;5036558;28;20293;-78
2023/06/19 14:32:12;;;;;;;7.88;6.85;;;28.20;64.70;;;;;;5049121;28;20238;-71
2023/06/19 14:35:01;;;;;;;7.95;5.50;;;28.10;67.20;;;;;;5064444;28;20915;-70
2023/06/19 14:37:49;;;;;;;10.15;7.00;;;28.20;64.70;;;;;;5069231;28;20231;-71